Time;durP1;ratioP1;P1;durP2;ratioP2;P2;SDS_P1;SDS_P2;PMS_P1;PMS_P2;Temp;Humidity;BMP_temperature;BMP_pressure;BME280_temperature;BME280_humidity;BME280_pressure;Samples;Min_cycle;Max_cycle;Signal;HPM_P1;HPM_P2
2023/04/23 00:00:02;;;;;;;36.63;24.40;;;8.30;99.90;;;;;;4947443;28;20171;-65
2023/04/23 00:02:32;;;;;;;41.80;25.98;;;8.30;99.90;;;;;;4948799;28;20429;-64
2023/04/23 00:05:04;;;;;;;40.22;26.63;;;8.30;99.90;;;;;;4950604;28;20054;-64
2023/04/23 00:07:32;;;;;;;35.67;24.80;;;8.30;99.90;;;;;;4949379;28;20042;-64
2023/04/23 00:09:59;;;;;;;39.40;25.60;;;8.20;99.90;;;;;;4945101;28;20404;-65
2023/04/23 00:12:25;;;;;;;34.17;23.73;;;8.20;99.90;;;;;;4945023;28;20125;-64
2023/04/23 00:14:52;;;;;;;34.70;24.40;;;8.20;99.90;;;;;;4948426;28;20046;-64
2023/04/23 00:17:18;;;;;;;36.88;23.65;;;8.10;99.90;;;;;;4947192;28;20400;-64
2023/04/23 00:19:45;;;;;;;38.95;24.98;;;8.10;99.90;;;;;;4950271;28;20086;-64
2023/04/23 00:22:12;;;;;;;42.40;26.08;;;8.10;99.90;;;;;;4948760;28;20070;-64
2023/04/23 00:24:41;;;;;;;46.85;27.60;;;8.10;99.90;;;;;;4966640;28;20157;-64
2023/04/23 00:27:07;;;;;;;58.50;28.00;;;8.00;99.90;;;;;;4948319;28;20888;-64
2023/04/23 00:29:32;;;;;;;43.70;26.45;;;8.10;99.90;;;;;;4946734;28;20042;-64
2023/04/23 00:31:58;;;;;;;76.22;27.40;;;8.00;99.90;;;;;;4944418;28;20046;-64
2023/04/23 00:34:25;;;;;;;53.53;25.98;;;8.00;99.90;;;;;;4948253;28;20057;-64
2023/04/23 00:36:51;;;;;;;62.88;26.27;;;8.00;99.90;;;;;;4949020;28;20049;-64
2023/04/23 00:39:16;;;;;;;45.40;26.13;;;7.90;99.90;;;;;;4934005;28;20466;-64
2023/04/23 00:41:43;;;;;;;38.80;25.98;;;7.90;99.90;;;;;;4948098;28;20125;-64
2023/04/23 00:44:09;;;;;;;39.42;25.90;;;7.90;99.90;;;;;;4947598;28;20042;-64
2023/04/23 00:46:36;;;;;;;37.97;26.15;;;7.90;99.90;;;;;;4944996;28;20039;-65
2023/04/23 00:49:02;;;;;;;41.95;25.75;;;7.90;99.90;;;;;;4952113;28;20042;-65
2023/04/23 00:51:30;;;;;;;43.95;25.77;;;7.80;99.90;;;;;;4933654;28;20061;-65
2023/04/23 00:53:56;;;;;;;44.35;25.35;;;7.80;99.90;;;;;;4948388;28;20081;-64
2023/04/23 00:56:27;;;;;;;50.53;26.48;;;7.80;99.90;;;;;;4965644;28;20101;-64
2023/04/23 00:58:53;;;;;;;48.28;27.00;;;7.80;99.90;;;;;;4947338;28;20513;-65
2023/04/23 01:01:22;;;;;;;51.72;26.45;;;7.80;99.90;;;;;;4949205;28;20344;-65
2023/04/23 01:03:51;;;;;;;40.10;26.13;;;7.80;99.90;;;;;;4943878;28;20466;-65
2023/04/23 01:06:17;;;;;;;40.35;27.85;;;7.80;99.90;;;;;;4956060;28;20532;-64
2023/04/23 01:08:44;;;;;;;46.63;27.42;;;7.80;99.90;;;;;;4928011;28;20128;-64
2023/04/23 01:11:13;;;;;;;54.13;29.85;;;7.80;99.90;;;;;;4948555;28;20047;-64
2023/04/23 01:13:40;;;;;;;55.63;28.30;;;7.80;99.90;;;;;;4946623;28;20383;-64
2023/04/23 01:16:07;;;;;;;53.88;29.48;;;7.80;99.90;;;;;;4951718;28;20149;-65
2023/04/23 01:18:33;;;;;;;53.30;29.58;;;7.80;99.90;;;;;;4947548;28;20109;-64
2023/04/23 01:20:58;;;;;;;54.25;29.75;;;7.80;99.90;;;;;;4948610;28;20049;-64
2023/04/23 01:23:26;;;;;;;53.38;29.02;;;7.70;99.90;;;;;;4949182;28;20073;-65
2023/04/23 01:25:53;;;;;;;45.85;26.65;;;7.70;99.90;;;;;;4926116;28;20042;-65
2023/04/23 01:28:19;;;;;;;53.70;30.67;;;7.70;99.90;;;;;;4947166;28;20048;-65
2023/04/23 01:30:46;;;;;;;53.92;28.00;;;7.70;99.90;;;;;;4950883;28;20504;-65
2023/04/23 01:33:12;;;;;;;46.38;28.02;;;7.70;99.90;;;;;;4948990;28;20058;-64
2023/04/23 01:35:39;;;;;;;46.38;28.67;;;7.70;99.90;;;;;;4954852;28;20046;-65
2023/04/23 01:38:08;;;;;;;45.08;26.92;;;7.60;99.90;;;;;;4945469;28;20042;-64
2023/04/23 01:40:33;;;;;;;47.05;27.98;;;7.70;99.90;;;;;;4961427;28;21018;-65
2023/04/23 01:43:00;;;;;;;43.30;27.70;;;7.70;99.90;;;;;;4951833;28;20116;-65
2023/04/23 01:45:25;;;;;;;44.28;27.90;;;7.60;99.90;;;;;;4927691;28;20051;-65
2023/04/23 01:47:51;;;;;;;49.58;29.77;;;7.70;99.90;;;;;;4953982;28;20046;-64
2023/04/23 01:50:17;;;;;;;49.97;29.60;;;7.60;99.90;;;;;;4955347;28;20050;-65
2023/04/23 01:52:44;;;;;;;48.90;29.15;;;7.60;99.90;;;;;;4949574;28;20051;-64
2023/04/23 01:55:10;;;;;;;55.83;30.85;;;7.60;99.90;;;;;;4940624;28;20038;-65
2023/04/23 01:57:36;;;;;;;44.00;29.70;;;7.60;99.90;;;;;;4934491;28;20998;-64
2023/04/23 02:00:09;;;;;;;48.83;29.88;;;7.60;99.90;;;;;;4949964;28;20051;-64
2023/04/23 02:02:36;;;;;;;52.67;30.63;;;7.60;99.90;;;;;;4934199;28;20045;-64
2023/04/23 02:05:06;;;;;;;53.05;31.17;;;7.60;99.90;;;;;;4952826;28;20069;-65
2023/04/23 02:07:32;;;;;;;46.47;29.50;;;7.60;99.90;;;;;;4941072;28;20043;-64
2023/04/23 02:09:58;;;;;;;53.22;31.55;;;7.50;99.90;;;;;;4951640;28;20050;-65
2023/04/23 02:12:25;;;;;;;56.10;32.65;;;7.50;99.90;;;;;;4954088;28;20054;-64
2023/04/23 02:14:51;;;;;;;55.03;31.92;;;7.50;99.90;;;;;;4945566;28;20050;-64
2023/04/23 02:17:20;;;;;;;55.47;32.83;;;7.50;99.90;;;;;;4943199;28;20050;-64
2023/04/23 02:19:46;;;;;;;54.90;31.05;;;7.50;99.90;;;;;;4953702;28;20045;-64
2023/04/23 02:22:12;;;;;;;56.63;31.45;;;7.50;99.90;;;;;;4938098;28;20039;-64
2023/04/23 02:24:37;;;;;;;59.80;33.55;;;7.50;99.90;;;;;;4954843;28;20131;-65
2023/04/23 02:27:03;;;;;;;56.95;33.20;;;7.50;99.90;;;;;;4938822;28;20053;-64
2023/04/23 02:29:30;;;;;;;64.30;35.42;;;7.50;99.90;;;;;;4947834;28;20038;-65
2023/04/23 02:31:55;;;;;;;61.67;34.33;;;7.50;99.90;;;;;;4943114;28;20043;-64
2023/04/23 02:34:21;;;;;;;61.72;35.45;;;7.50;99.90;;;;;;4949759;28;20042;-65
2023/04/23 02:36:47;;;;;;;65.55;38.20;;;7.50;99.90;;;;;;4937264;28;20042;-65
2023/04/23 02:39:12;;;;;;;70.80;39.08;;;7.50;99.90;;;;;;4934605;28;20060;-65
2023/04/23 02:41:38;;;;;;;67.25;36.92;;;7.50;99.90;;;;;;4947754;28;20057;-65
2023/04/23 02:44:04;;;;;;;68.13;38.05;;;7.50;99.90;;;;;;4944132;28;20152;-65
2023/04/23 02:46:30;;;;;;;66.28;38.85;;;7.50;99.90;;;;;;4951013;28;20486;-64
2023/04/23 02:48:56;;;;;;;63.22;36.90;;;7.40;99.90;;;;;;4952031;28;20046;-62
2023/04/23 02:51:22;;;;;;;60.55;37.42;;;7.40;99.90;;;;;;4949139;28;20071;-61
2023/04/23 02:53:48;;;;;;;64.70;38.10;;;7.40;99.90;;;;;;4952635;28;20562;-61
2023/04/23 02:56:13;;;;;;;70.93;37.25;;;7.30;99.90;;;;;;4948934;28;20782;-61
2023/04/23 02:58:39;;;;;;;67.03;37.67;;;7.40;99.90;;;;;;4951347;28;20079;-63
2023/04/23 03:01:05;;;;;;;69.45;38.58;;;7.40;99.90;;;;;;4934650;28;20089;-61
2023/04/23 03:03:32;;;;;;;75.00;40.40;;;7.40;99.90;;;;;;4950573;28;20137;-60
2023/04/23 03:06:00;;;;;;;70.22;39.58;;;7.30;99.90;;;;;;4961552;28;20077;-62
2023/04/23 03:08:26;;;;;;;76.15;42.00;;;7.30;99.90;;;;;;4964730;28;20050;-62
2023/04/23 03:10:52;;;;;;;76.03;42.40;;;7.30;99.90;;;;;;4951232;28;20088;-61
2023/04/23 03:13:17;;;;;;;83.38;42.47;;;7.30;99.90;;;;;;4951557;28;20046;-61
2023/04/23 03:15:43;;;;;;;78.97;41.17;;;7.30;99.90;;;;;;4952336;28;20053;-60
2023/04/23 03:18:09;;;;;;;86.57;44.70;;;7.30;99.90;;;;;;4943114;28;20069;-61
2023/04/23 03:20:36;;;;;;;90.18;45.63;;;7.30;99.90;;;;;;4949769;28;20042;-62
2023/04/23 03:23:05;;;;;;;90.50;45.47;;;7.40;99.90;;;;;;4949899;28;20038;-61
2023/04/23 03:25:31;;;;;;;87.68;44.35;;;7.40;99.90;;;;;;4935456;28;20505;-62
2023/04/23 03:27:57;;;;;;;98.97;45.42;;;7.40;99.90;;;;;;4940068;28;20053;-61
2023/04/23 03:30:23;;;;;;;84.60;43.45;;;7.40;99.90;;;;;;4949037;28;20540;-61
2023/04/23 03:32:49;;;;;;;119.32;45.30;;;7.40;99.90;;;;;;4939433;28;20053;-61
2023/04/23 03:35:15;;;;;;;104.50;45.17;;;7.40;99.90;;;;;;4940647;28;20042;-62
2023/04/23 03:37:41;;;;;;;115.47;46.22;;;7.30;99.90;;;;;;4945227;28;20053;-61
2023/04/23 03:40:08;;;;;;;134.05;46.58;;;7.30;99.90;;;;;;4936542;28;20486;-63
2023/04/23 03:42:34;;;;;;;114.63;44.20;;;7.30;99.90;;;;;;4941598;28;20124;-61
2023/04/23 03:45:00;;;;;;;93.70;44.33;;;7.30;99.90;;;;;;4935085;28;20046;-61
2023/04/23 03:47:26;;;;;;;100.78;45.67;;;7.20;99.90;;;;;;4950300;28;20045;-61
2023/04/23 03:49:52;;;;;;;136.65;47.17;;;7.20;99.90;;;;;;4959513;28;20042;-63
2023/04/23 03:52:18;;;;;;;123.07;46.80;;;7.20;99.90;;;;;;4946492;28;20517;-61
2023/04/23 03:54:43;;;;;;;93.20;46.83;;;7.20;99.90;;;;;;4960918;28;20090;-61
2023/04/23 03:57:12;;;;;;;252.57;53.53;;;7.20;99.90;;;;;;4968276;28;20406;-63
2023/04/23 03:59:38;;;;;;;98.60;45.28;;;7.20;99.90;;;;;;4949279;28;20047;-61
2023/04/23 04:02:04;;;;;;;101.18;47.60;;;7.20;99.90;;;;;;4951054;28;20579;-63
2023/04/23 04:04:31;;;;;;;108.28;49.08;;;7.20;99.90;;;;;;4953726;28;20486;-62
2023/04/23 04:06:59;;;;;;;141.23;49.58;;;7.20;99.90;;;;;;4950840;28;20082;-61
2023/04/23 04:09:25;;;;;;;124.95;51.25;;;7.20;99.90;;;;;;4950306;28;20047;-62
2023/04/23 04:11:52;;;;;;;114.63;51.30;;;7.30;99.90;;;;;;4947957;28;20496;-62
2023/04/23 04:14:19;;;;;;;106.00;50.70;;;7.30;99.90;;;;;;4941953;28;20149;-60
2023/04/23 04:16:45;;;;;;;129.50;54.22;;;7.30;99.90;;;;;;4960426;28;20034;-62
2023/04/23 04:19:11;;;;;;;105.00;50.03;;;7.30;99.90;;;;;;4967088;28;20046;-63
2023/04/23 04:21:36;;;;;;;134.35;52.35;;;7.30;99.90;;;;;;4947253;28;20058;-61
2023/04/23 04:24:03;;;;;;;175.23;54.88;;;7.30;99.90;;;;;;4945032;28;20039;-61
2023/04/23 04:26:31;;;;;;;107.22;52.35;;;7.40;99.90;;;;;;4946963;28;20044;-62
2023/04/23 04:29:00;;;;;;;131.95;53.05;;;7.30;99.90;;;;;;4948826;28;20069;-63
2023/04/23 04:31:29;;;;;;;104.65;50.30;;;7.40;99.90;;;;;;4947615;28;20177;-62
2023/04/23 04:33:56;;;;;;;105.82;52.47;;;7.40;99.90;;;;;;4948801;28;20065;-61
2023/04/23 04:36:24;;;;;;;114.25;51.38;;;7.30;99.90;;;;;;4940239;28;20089;-61
2023/04/23 04:38:50;;;;;;;152.25;56.78;;;7.40;99.90;;;;;;4941041;28;20058;-61
2023/04/23 04:41:18;;;;;;;113.38;53.88;;;7.40;99.90;;;;;;4946399;28;20046;-62
2023/04/23 04:43:45;;;;;;;114.50;55.40;;;7.40;99.90;;;;;;4964310;28;20039;-62
2023/04/23 04:46:11;;;;;;;125.68;56.95;;;7.40;99.90;;;;;;4944327;28;20493;-60
2023/04/23 04:48:37;;;;;;;148.32;59.67;;;7.50;99.90;;;;;;4945744;28;20035;-61
2023/04/23 04:51:03;;;;;;;130.18;59.38;;;7.50;99.90;;;;;;4932602;28;20047;-63
2023/04/23 04:53:29;;;;;;;119.03;55.90;;;7.50;99.90;;;;;;4947867;28;20490;-62
2023/04/23 04:55:55;;;;;;;121.18;57.05;;;7.50;99.90;;;;;;4940658;28;20097;-60
2023/04/23 04:58:20;;;;;;;124.05;57.85;;;7.50;99.90;;;;;;4949345;28;20874;-62
2023/04/23 05:00:50;;;;;;;122.13;59.15;;;7.60;99.90;;;;;;4930540;28;20065;-62
2023/04/23 05:03:17;;;;;;;120.82;57.80;;;7.60;99.90;;;;;;4954137;28;20129;-60
2023/04/23 05:05:44;;;;;;;140.38;61.30;;;7.60;99.90;;;;;;4954378;28;20061;-61
2023/04/23 05:08:10;;;;;;;117.28;58.08;;;7.70;99.90;;;;;;4946252;28;20489;-61
2023/04/23 05:10:36;;;;;;;126.72;57.20;;;7.70;99.90;;;;;;4955818;28;20181;-61
2023/04/23 05:13:02;;;;;;;140.15;60.25;;;7.70;99.90;;;;;;4959646;28;20102;-61
2023/04/23 05:15:27;;;;;;;134.07;58.97;;;7.70;99.90;;;;;;4956879;28;20042;-62
2023/04/23 05:17:53;;;;;;;128.10;59.55;;;7.70;99.90;;;;;;4954837;28;20043;-60
2023/04/23 05:20:20;;;;;;;127.00;58.72;;;7.80;99.90;;;;;;4943263;28;20133;-62
2023/04/23 05:22:46;;;;;;;118.47;55.35;;;7.80;99.90;;;;;;4944143;28;20034;-62
2023/04/23 05:25:12;;;;;;;114.25;54.10;;;7.80;99.90;;;;;;4952357;28;20105;-60
2023/04/23 05:27:39;;;;;;;111.90;54.42;;;7.80;99.90;;;;;;4963076;28;20042;-60
2023/04/23 05:30:07;;;;;;;108.55;52.35;;;7.90;99.90;;;;;;4954356;28;20050;-61
2023/04/23 05:32:33;;;;;;;110.75;52.17;;;7.90;99.90;;;;;;4952480;28;20101;-61
2023/04/23 05:34:59;;;;;;;112.15;53.38;;;7.90;99.90;;;;;;4952243;28;20705;-63
2023/04/23 05:37:25;;;;;;;97.88;50.47;;;7.90;99.90;;;;;;4954416;28;20042;-62
2023/04/23 05:39:51;;;;;;;106.78;52.53;;;7.90;99.90;;;;;;4957112;28;20736;-61
2023/04/23 05:42:17;;;;;;;95.15;49.78;;;7.90;99.90;;;;;;4954628;28;20117;-62
2023/04/23 05:44:42;;;;;;;95.50;49.58;;;7.90;99.90;;;;;;4954746;28;20058;-60
2023/04/23 05:47:09;;;;;;;88.25;47.95;;;7.90;99.90;;;;;;4954167;28;20050;-62
2023/04/23 05:49:35;;;;;;;86.50;47.72;;;8.00;99.90;;;;;;4957832;28;20064;-62
2023/04/23 05:52:02;;;;;;;95.00;49.97;;;8.00;99.90;;;;;;4952106;28;20045;-61
2023/04/23 05:54:28;;;;;;;95.03;49.95;;;8.00;99.90;;;;;;4950150;28;20469;-62
2023/04/23 05:56:54;;;;;;;92.32;49.63;;;8.00;99.90;;;;;;4963336;28;20038;-61
2023/04/23 05:59:20;;;;;;;101.05;51.08;;;8.00;99.90;;;;;;4954706;28;20512;-61
2023/04/23 06:01:46;;;;;;;98.72;49.45;;;8.00;99.90;;;;;;4948640;28;20038;-62
2023/04/23 06:04:13;;;;;;;95.53;50.60;;;8.10;99.90;;;;;;4957692;28;20065;-60
2023/04/23 06:06:38;;;;;;;93.35;50.17;;;8.10;99.90;;;;;;4936970;28;20035;-62
2023/04/23 06:09:05;;;;;;;99.05;50.63;;;8.10;99.90;;;;;;4953250;28;20057;-60
2023/04/23 06:11:31;;;;;;;95.47;51.95;;;8.20;99.90;;;;;;4948964;28;20035;-62
2023/04/23 06:14:01;;;;;;;93.22;48.40;;;8.30;99.90;;;;;;4958369;28;20057;-61
2023/04/23 06:16:27;;;;;;;102.07;52.30;;;8.30;99.90;;;;;;4956546;28;20093;-63
2023/04/23 06:18:55;;;;;;;86.20;48.53;;;8.40;99.90;;;;;;4952880;28;20498;-61
2023/04/23 06:21:21;;;;;;;95.65;50.20;;;8.50;99.90;;;;;;4945153;28;20509;-62
2023/04/23 06:23:47;;;;;;;93.95;49.97;;;8.50;99.90;;;;;;4938532;28;20050;-61
2023/04/23 06:26:13;;;;;;;103.00;53.80;;;8.50;99.90;;;;;;4945873;28;20042;-62
2023/04/23 06:28:41;;;;;;;103.93;52.08;;;8.60;99.90;;;;;;4955540;28;20043;-61
2023/04/23 06:31:07;;;;;;;95.95;49.92;;;8.70;99.90;;;;;;4955453;28;20878;-61
2023/04/23 06:33:35;;;;;;;91.00;49.88;;;8.80;99.90;;;;;;4958392;28;20453;-62
2023/04/23 06:36:01;;;;;;;99.68;52.67;;;8.90;99.90;;;;;;4951717;28;20038;-63
2023/04/23 06:38:26;;;;;;;95.70;51.08;;;9.00;99.90;;;;;;4952840;28;20056;-61
2023/04/23 06:40:52;;;;;;;88.70;49.75;;;9.00;99.90;;;;;;4940659;28;20039;-61
2023/04/23 06:43:18;;;;;;;97.43;54.03;;;9.10;99.90;;;;;;4939129;28;20054;-61
2023/04/23 06:45:44;;;;;;;99.90;51.58;;;9.10;99.90;;;;;;4938215;28;20031;-61
2023/04/23 06:48:09;;;;;;;96.07;51.58;;;9.20;99.90;;;;;;4921350;28;20039;-63
2023/04/23 06:50:35;;;;;;;102.10;54.40;;;9.20;99.90;;;;;;4970320;28;21051;-61
2023/04/23 06:53:01;;;;;;;99.40;52.25;;;9.30;99.90;;;;;;4957812;28;20050;-63
2023/04/23 06:55:27;;;;;;;93.70;51.03;;;9.30;99.90;;;;;;4961016;28;20162;-62
2023/04/23 06:57:54;;;;;;;93.53;51.50;;;9.30;99.90;;;;;;4952619;28;20497;-62
2023/04/23 07:00:21;;;;;;;92.72;50.58;;;9.30;99.90;;;;;;4946812;28;20145;-62
2023/04/23 07:02:47;;;;;;;96.32;51.67;;;9.40;99.90;;;;;;4938501;28;20038;-61
2023/04/23 07:05:13;;;;;;;97.82;50.75;;;9.50;99.90;;;;;;4945880;28;20120;-62
2023/04/23 07:07:39;;;;;;;95.30;51.80;;;9.50;99.90;;;;;;4929693;28;20106;-61
2023/04/23 07:10:06;;;;;;;89.78;49.50;;;9.60;99.90;;;;;;4933280;28;20047;-61
2023/04/23 07:12:32;;;;;;;89.57;50.08;;;9.70;99.90;;;;;;4932939;28;21130;-62
2023/04/23 07:14:57;;;;;;;87.75;48.90;;;9.80;99.90;;;;;;4945213;28;20047;-63
2023/04/23 07:17:23;;;;;;;83.93;48.03;;;9.90;99.90;;;;;;4944399;28;20294;-63
2023/04/23 07:19:49;;;;;;;86.93;48.30;;;10.00;99.90;;;;;;4945494;28;20061;-62
2023/04/23 07:22:15;;;;;;;84.35;47.92;;;10.10;99.90;;;;;;4933378;28;20094;-60
2023/04/23 07:24:41;;;;;;;87.13;48.38;;;10.20;99.90;;;;;;4931668;28;20050;-61
2023/04/23 07:27:06;;;;;;;82.65;46.05;;;10.30;99.90;;;;;;4945258;28;20058;-61
2023/04/23 07:29:32;;;;;;;82.72;47.60;;;10.40;99.90;;;;;;4933439;28;20114;-61
2023/04/23 07:31:58;;;;;;;78.50;46.45;;;10.60;99.90;;;;;;4946546;28;20039;-61
2023/04/23 07:34:24;;;;;;;76.97;45.45;;;10.70;99.90;;;;;;4942971;28;20051;-62
2023/04/23 07:36:50;;;;;;;74.47;43.70;;;10.80;99.90;;;;;;4941946;28;20083;-62
2023/04/23 07:39:17;;;;;;;75.63;43.17;;;10.90;99.90;;;;;;4912327;28;20050;-61
2023/04/23 07:41:42;;;;;;;71.32;43.53;;;11.00;99.90;;;;;;4929418;28;20074;-61
2023/04/23 07:44:08;;;;;;;68.70;42.95;;;11.10;99.90;;;;;;4930937;28;20177;-61
2023/04/23 07:46:34;;;;;;;65.05;41.22;;;11.20;99.90;;;;;;4933406;28;20050;-62
2023/04/23 07:49:00;;;;;;;72.28;44.10;;;11.30;99.90;;;;;;4951079;28;20179;-62
2023/04/23 07:51:25;;;;;;;65.28;41.97;;;11.30;99.90;;;;;;4942588;28;20043;-64
2023/04/23 07:53:53;;;;;;;62.50;39.88;;;11.40;99.90;;;;;;4941649;28;20158;-63
2023/04/23 07:56:23;;;;;;;62.15;40.50;;;11.50;99.90;;;;;;4944078;28;20039;-63
2023/04/23 07:58:49;;;;;;;65.63;41.78;;;11.50;99.90;;;;;;4941143;28;20410;-63
2023/04/23 08:01:16;;;;;;;62.30;40.60;;;11.60;99.90;;;;;;4933712;28;20528;-62
2023/04/23 08:03:42;;;;;;;61.50;38.13;;;11.70;99.90;;;;;;4938492;28;21085;-63
2023/04/23 08:06:10;;;;;;;61.50;38.58;;;11.70;99.90;;;;;;4945143;28;20054;-61
2023/04/23 08:08:37;;;;;;;61.53;39.30;;;11.70;99.90;;;;;;4946553;28;20504;-62
2023/04/23 08:11:03;;;;;;;57.47;36.88;;;11.80;99.90;;;;;;4932139;28;20074;-62
2023/04/23 08:13:28;;;;;;;55.75;37.58;;;12.00;99.90;;;;;;4910881;28;20050;-62
2023/04/23 08:15:54;;;;;;;58.90;37.45;;;12.10;99.90;;;;;;4943690;28;20050;-63
2023/04/23 08:18:20;;;;;;;54.50;35.17;;;12.30;99.90;;;;;;4946110;28;20051;-64
2023/04/23 08:20:45;;;;;;;56.75;36.70;;;12.40;99.90;;;;;;4944021;28;20043;-63
2023/04/23 08:23:11;;;;;;;50.97;34.28;;;12.50;99.90;;;;;;4943148;28;20379;-63
2023/04/23 08:25:37;;;;;;;52.13;35.30;;;12.50;99.90;;;;;;4943218;28;20141;-61
2023/04/23 08:28:03;;;;;;;50.70;33.97;;;12.60;99.90;;;;;;4948053;28;20053;-62
2023/04/23 08:30:28;;;;;;;48.75;32.65;;;12.60;99.90;;;;;;4943193;28;20522;-61
2023/04/23 08:32:54;;;;;;;49.83;33.40;;;12.70;99.90;;;;;;4948771;28;21176;-61
2023/04/23 08:35:22;;;;;;;50.10;34.55;;;12.80;99.90;;;;;;4950046;28;20039;-62
2023/04/23 08:37:47;;;;;;;51.88;33.20;;;12.90;99.90;;;;;;4912592;28;20749;-63
2023/04/23 08:40:14;;;;;;;43.28;30.60;;;13.00;99.90;;;;;;4944231;28;20062;-61
2023/04/23 08:42:43;;;;;;;45.97;31.23;;;13.10;99.90;;;;;;4943544;28;20150;-62
2023/04/23 08:45:10;;;;;;;44.60;31.08;;;13.20;99.90;;;;;;4949441;28;20126;-62
2023/04/23 08:47:41;;;;;;;43.97;31.33;;;13.40;99.90;;;;;;4941942;28;20077;-62
2023/04/23 08:50:11;;;;;;;46.08;31.17;;;13.40;99.90;;;;;;4950588;28;20047;-61
2023/04/23 08:52:41;;;;;;;45.28;29.00;;;13.50;99.90;;;;;;4944454;28;20061;-61
2023/04/23 08:55:13;;;;;;;40.00;28.35;;;13.70;99.90;;;;;;4948519;28;20444;-62
2023/04/23 08:57:40;;;;;;;38.50;27.02;;;13.80;99.90;;;;;;4945229;28;20379;-62
2023/04/23 09:00:11;;;;;;;42.05;26.70;;;13.80;99.90;;;;;;4945739;28;20406;-62
2023/04/23 09:02:39;;;;;;;35.80;24.25;;;13.90;99.90;;;;;;4940474;28;20520;-61
2023/04/23 09:05:07;;;;;;;38.03;25.58;;;14.00;99.90;;;;;;4931912;28;20055;-63
2023/04/23 09:07:34;;;;;;;36.55;24.23;;;14.10;99.90;;;;;;4932518;28;20058;-62
2023/04/23 09:10:04;;;;;;;40.00;25.88;;;14.20;99.90;;;;;;4929102;28;20046;-61
2023/04/23 09:12:31;;;;;;;37.28;25.75;;;14.30;99.90;;;;;;4931302;28;20054;-63
2023/04/23 09:14:57;;;;;;;37.33;24.27;;;14.40;99.90;;;;;;4933496;28;20074;-62
2023/04/23 09:17:27;;;;;;;31.45;22.90;;;14.50;99.90;;;;;;4923942;28;20102;-63
2023/04/23 09:19:54;;;;;;;34.72;22.83;;;14.60;99.90;;;;;;4945951;28;20096;-62
2023/04/23 09:22:41;;;;;;;28.65;19.02;;;14.70;99.90;;;;;;4936194;28;20477;-62
2023/04/23 09:25:08;;;;;;;31.42;21.80;;;14.90;99.90;;;;;;4898774;28;20050;-62
2023/04/23 09:27:35;;;;;;;28.83;19.90;;;15.10;99.90;;;;;;4936061;28;20727;-62
2023/04/23 09:30:06;;;;;;;30.02;20.98;;;15.20;99.90;;;;;;4935577;28;20054;-62
2023/04/23 09:32:40;;;;;;;27.20;17.90;;;15.20;99.90;;;;;;4934017;28;20086;-61
2023/04/23 09:35:09;;;;;;;25.38;16.83;;;15.40;99.90;;;;;;4922023;28;20053;-62
2023/04/23 09:37:35;;;;;;;26.30;19.52;;;15.40;99.90;;;;;;4932870;28;20046;-63
2023/04/23 09:40:04;;;;;;;27.85;19.15;;;15.40;99.90;;;;;;4929449;28;20055;-64
2023/04/23 09:42:31;;;;;;;32.15;20.50;;;15.50;99.90;;;;;;4923716;28;20050;-63
2023/04/23 09:45:06;;;;;;;23.25;16.08;;;15.80;99.90;;;;;;4935185;28;20046;-63
2023/04/23 09:47:39;;;;;;;24.98;15.68;;;15.90;99.90;;;;;;4930992;28;20054;-62
2023/04/23 09:50:06;;;;;;;22.95;15.57;;;15.90;99.90;;;;;;4931454;28;20051;-61
2023/04/23 09:52:32;;;;;;;21.70;14.82;;;15.80;99.90;;;;;;4941413;28;20150;-63
2023/04/23 09:55:01;;;;;;;19.83;13.52;;;15.80;99.90;;;;;;4933139;28;20074;-62
2023/04/23 09:57:27;;;;;;;22.70;14.25;;;15.80;99.90;;;;;;4935999;28;20149;-60
2023/04/23 09:59:56;;;;;;;19.95;13.45;;;15.80;99.90;;;;;;4922417;28;20050;-63
2023/04/23 10:02:27;;;;;;;22.45;14.55;;;15.90;99.90;;;;;;4938520;28;20039;-61
2023/04/23 10:04:53;;;;;;;20.45;12.90;;;15.90;99.90;;;;;;4936403;28;20134;-63
2023/04/23 10:07:19;;;;;;;20.75;12.65;;;16.00;99.90;;;;;;4934680;28;20055;-62
2023/04/23 10:09:46;;;;;;;16.77;11.43;;;16.10;99.90;;;;;;4904378;28;20053;-61
2023/04/23 10:12:13;;;;;;;17.15;12.05;;;16.30;99.90;;;;;;4933615;28;20043;-62
2023/04/23 10:14:41;;;;;;;19.35;11.82;;;16.40;99.90;;;;;;4930179;28;20059;-61
2023/04/23 10:17:09;;;;;;;18.20;12.00;;;16.40;99.90;;;;;;4933092;28;20096;-63
2023/04/23 10:19:36;;;;;;;17.67;10.02;;;16.50;99.90;;;;;;4937999;28;20069;-62
2023/04/23 10:22:04;;;;;;;17.10;9.40;;;16.70;99.90;;;;;;4934399;28;20074;-61
2023/04/23 10:24:36;;;;;;;17.08;9.35;;;16.70;99.90;;;;;;4930614;28;20058;-63
2023/04/23 10:27:04;;;;;;;19.05;10.75;;;16.70;99.90;;;;;;4929730;28;20390;-63
2023/04/23 10:29:32;;;;;;;21.38;10.98;;;16.70;99.90;;;;;;4935596;28;21115;-62
2023/04/23 10:32:00;;;;;;;18.15;10.38;;;16.90;99.90;;;;;;4935887;28;20391;-63
2023/04/23 10:34:28;;;;;;;13.45;7.22;;;17.10;99.90;;;;;;4928384;28;20083;-63
2023/04/23 10:36:56;;;;;;;12.20;7.40;;;17.30;99.90;;;;;;4927475;28;25127;-61
2023/04/23 10:39:23;;;;;;;15.95;7.05;;;17.40;99.90;;;;;;4929352;28;20158;-62
2023/04/23 10:41:51;;;;;;;17.50;7.60;;;17.60;99.90;;;;;;4932882;28;20145;-62
2023/04/23 10:44:20;;;;;;;18.70;6.75;;;17.60;99.90;;;;;;4947272;28;20907;-62
2023/04/23 10:46:57;;;;;;;14.02;6.43;;;17.50;99.90;;;;;;4940349;28;20166;-62
2023/04/23 10:49:24;;;;;;;13.13;6.15;;;17.40;99.90;;;;;;4942197;28;20670;-63
2023/04/23 10:52:01;;;;;;;13.77;6.82;;;17.20;99.90;;;;;;4927617;28;20047;-62
2023/04/23 10:54:30;;;;;;;19.92;6.57;;;17.10;99.90;;;;;;4937510;28;20039;-62
2023/04/23 10:57:01;;;;;;;14.00;5.30;;;17.10;99.90;;;;;;4936907;28;20126;-61
2023/04/23 10:59:29;;;;;;;11.75;5.82;;;17.10;99.90;;;;;;4941621;28;20044;-62
2023/04/23 11:01:59;;;;;;;10.25;5.60;;;17.20;99.90;;;;;;4932852;28;20497;-63
2023/04/23 11:04:27;;;;;;;14.43;4.97;;;17.10;99.90;;;;;;4932784;28;20113;-63
2023/04/23 11:07:03;;;;;;;11.88;5.40;;;17.10;99.90;;;;;;4934684;28;21541;-62
2023/04/23 11:09:40;;;;;;;11.05;5.22;;;17.00;99.90;;;;;;4938896;28;20049;-64
2023/04/23 11:12:26;;;;;;;12.63;6.07;;;16.90;99.90;;;;;;4942838;28;20497;-64
2023/04/23 11:14:56;;;;;;;15.45;7.00;;;17.20;99.90;;;;;;4928782;28;20471;-63
2023/04/23 11:17:23;;;;;;;9.85;4.18;;;17.50;99.90;;;;;;4936745;28;20631;-62
2023/04/23 11:20:09;;;;;;;8.27;3.90;;;17.80;99.90;;;;;;4945937;28;20043;-62
2023/04/23 11:22:43;;;;;;;12.48;5.85;;;18.10;99.90;;;;;;4934458;28;20031;-63
2023/04/23 11:25:11;;;;;;;9.52;4.22;;;18.40;99.90;;;;;;4958011;28;20035;-62
2023/04/23 11:27:42;;;;;;;8.00;3.75;;;18.40;99.90;;;;;;4948428;28;20121;-62
2023/04/23 11:30:13;;;;;;;6.65;3.53;;;18.30;99.90;;;;;;4951981;28;20043;-62
2023/04/23 11:32:43;;;;;;;9.38;4.38;;;18.10;99.90;;;;;;4951836;28;20039;-63
2023/04/23 11:35:10;;;;;;;9.40;3.83;;;18.00;99.90;;;;;;4950986;28;20528;-63
2023/04/23 11:37:40;;;;;;;9.82;3.45;;;18.00;99.90;;;;;;4951885;28;20537;-62
2023/04/23 11:40:08;;;;;;;8.75;3.30;;;18.10;99.90;;;;;;4954018;28;20098;-62
2023/04/23 11:42:45;;;;;;;10.05;3.28;;;18.10;99.90;;;;;;4951018;28;20061;-64
2023/04/23 11:45:24;;;;;;;9.57;3.13;;;18.00;99.90;;;;;;4951776;28;20410;-63
2023/04/23 11:47:54;;;;;;;6.90;3.10;;;17.90;99.90;;;;;;4954016;28;20035;-62
2023/04/23 11:50:31;;;;;;;10.13;3.53;;;17.80;99.90;;;;;;4951308;28;20069;-63
2023/04/23 11:53:05;;;;;;;8.85;3.15;;;17.70;99.90;;;;;;4952344;28;20078;-63
2023/04/23 11:55:31;;;;;;;7.15;2.90;;;17.60;99.90;;;;;;4958629;28;20118;-62
2023/04/23 11:57:57;;;;;;;6.68;2.65;;;17.50;99.90;;;;;;4934781;28;20129;-64
2023/04/23 12:00:25;;;;;;;9.48;2.90;;;17.40;99.90;;;;;;4942691;28;20043;-63
2023/04/23 12:03:04;;;;;;;8.57;2.75;;;17.40;99.90;;;;;;4953496;28;20454;-63
2023/04/23 12:05:41;;;;;;;9.52;2.90;;;17.40;99.90;;;;;;4952668;28;20059;-63
2023/04/23 12:08:11;;;;;;;7.28;3.38;;;17.50;99.90;;;;;;4953504;28;20043;-62
2023/04/23 12:10:54;;;;;;;6.38;2.60;;;17.70;99.90;;;;;;4948222;28;20087;-62
2023/04/23 12:13:32;;;;;;;9.30;2.45;;;18.00;99.90;;;;;;4933278;28;20783;-62
2023/04/23 12:16:03;;;;;;;6.78;2.40;;;18.30;99.90;;;;;;4927502;28;20170;-62
2023/04/23 12:18:38;;;;;;;9.15;2.75;;;18.50;99.90;;;;;;4950967;28;21403;-62
2023/04/23 12:21:12;;;;;;;6.43;2.08;;;18.80;99.80;;;;;;4953400;28;20564;-63
2023/04/23 12:23:40;;;;;;;5.30;2.30;;;19.20;99.90;;;;;;4928046;28;20109;-64
2023/04/23 12:26:16;;;;;;;6.63;2.90;;;19.50;99.90;;;;;;4942911;28;20043;-64
2023/04/23 12:28:53;;;;;;;5.95;2.10;;;19.60;98.50;;;;;;4950365;28;20066;-62
2023/04/23 12:31:23;;;;;;;6.72;2.13;;;19.50;97.10;;;;;;4968446;28;20056;-62
2023/04/23 12:34:09;;;;;;;7.25;2.40;;;19.50;97.30;;;;;;4952252;28;20767;-63